This is the latest recevied weather packets stored in our database for station/object SV9TNF-1. If no packets are shown the sender has not sent any weather packets the latest 10 day(s).
| Time | Temp. | Humidity | Pressure | Rain* | Wind** | Luminosity | Snow |
|---|---|---|---|---|---|---|---|
| 1778247688 | 23.89° C | 43% | 1006.4 hPa | 0 mm | 3.13 m/s, 151° | - | - |
| 1778247388 | 23.89° C | 43% | 1006.4 hPa | 0 mm | 1.34 m/s, 139° | - | - |
| 1778247088 | 24.44° C | 42% | 1006.4 hPa | 0 mm | 1.79 m/s, 150° | - | - |
| 1778246787 | 24.44° C | 44% | 1006.4 hPa | 0 mm | 1.79 m/s, 131° | - | - |
| 1778246487 | 24.44° C | 43% | 1006.8 hPa | 0 mm | 1.79 m/s, 120° | - | - |
| 1778246188 | 25.56° C | 43% | 1006.8 hPa | 0 mm | 2.24 m/s, 147° | - | - |
| 1778245887 | 26.11° C | 43% | 1007.5 hPa | 0 mm | 1.79 m/s, 144° | - | - |
| 1778245588 | 25.56° C | 45% | 1007.5 hPa | 0 mm | 0.45 m/s, 127° | - | - |
| 1778245288 | 26.67° C | 45% | 1007.5 hPa | 0 mm | 0.45 m/s, 125° | - | - |
| 1778244987 | 25.56° C | 42% | 1007.5 hPa | 0 mm | 1.79 m/s, 135° | - | - |
| 1778244687 | 25° C | 44% | 1007.5 hPa | 0 mm | 1.79 m/s, 118° | - | - |
| 1778244388 | 24.44° C | 45% | 1007.8 hPa | 0 mm | 3.58 m/s, 180° | - | - |
| 1778244087 | 24.44° C | 48% | 1007.8 hPa | 0 mm | 3.13 m/s, 126° | - | - |
| 1778243787 | 24.44° C | 52% | 1007.8 hPa | 0 mm | 3.58 m/s, 190° | - | - |
| 1778243487 | 23.89° C | 51% | 1007.8 hPa | 0 mm | 1.34 m/s, 167° | - | - |
| 1778243187 | 23.33° C | 54% | 1007.8 hPa | 0 mm | 3.13 m/s, 101° | - | - |
| 1778242886 | 23.33° C | 56% | 1007.8 hPa | 0 mm | 1.79 m/s, 123° | - | - |
| 1778242586 | 22.78° C | 61% | 1007.8 hPa | 0 mm | 5.81 m/s, 186° | - | - |
| 1778242286 | 22.78° C | 60% | 1008.1 hPa | 0 mm | 2.24 m/s, 104° | - | - |
| 1778241986 | 22.78° C | 63% | 1008.1 hPa | 0 mm | 4.47 m/s, 326° | - | - |
| 1778241686 | 22.22° C | 65% | 1008.1 hPa | 0 mm | 5.36 m/s, 222° | - | - |
| 1778241387 | 22.78° C | 64% | 1008.5 hPa | 0 mm | 5.81 m/s, 322° | - | - |
| 1778241086 | 22.78° C | 65% | 1008.5 hPa | 0 mm | 4.47 m/s, 190° | - | - |
| 1778240785 | 22.78° C | 65% | 1008.8 hPa | 0 mm | 1.79 m/s, 166° | - | - |
| 1778240486 | 22.78° C | 70% | 1008.8 hPa | 0 mm | 4.92 m/s, 183° | - | - |
* Rain latest hour (hover to see other rain measurements)
** Current wind speed in m/s (hover to see current wind gust speed)